Terminal Aerodrome Forecast
Issued by NWS Cleveland, OH

Home | Current Version | Previous Version | Text Only | Print | Product List | Glossary On
Versions: 1 2 3 4 5 6 7 8 9 10 11 12 13 14 15 16 17
078
FTUS41 KCLE 221250 AAA
TAFCAK
TAF AMD
KCAK 221250Z 2213/2312 20010KT 4SM -RA BR VCTS OVC005CB
      TEMPO 2213/2214 2SM -TSRA SCT005 OVC015CB
     FM221400 20006KT 5SM -SHRA OVC008
     FM221700 22007KT P6SM VCTS BKN015CB OVC040
     FM230200 26007KT P6SM SCT030 BKN080
     FM231000 24004KT 6SM BR SCT007 BKN015=

USA.gov is the U.S. government's official web portal to all federal, state and local government web resources and services.